createdAt,value
2018-09-17T00:00:06.290Z,9.70
2018-09-17T00:01:06.268Z,11.50
2018-09-17T00:02:06.260Z,9.20
2018-09-17T00:03:06.248Z,9.30
2018-09-17T00:04:06.219Z,12.80
2018-09-17T00:05:06.202Z,10.10
2018-09-17T00:06:06.184Z,12.20
2018-09-17T00:07:06.177Z,10.30
2018-09-17T00:08:06.154Z,9.90
2018-09-17T00:09:06.143Z,10.20
2018-09-17T00:10:06.158Z,9.00
2018-09-17T00:11:06.099Z,10.10
2018-09-17T00:12:06.084Z,8.90
2018-09-17T00:13:06.066Z,12.10
2018-09-17T00:14:06.071Z,10.50
2018-09-17T00:15:06.031Z,10.60
2018-09-17T00:16:06.019Z,10.10
2018-09-17T00:17:05.998Z,10.60
2018-09-17T00:18:06.013Z,11.50
2018-09-17T00:19:05.964Z,16.60
2018-09-17T00:20:05.949Z,10.20
2018-09-17T00:21:05.931Z,10.70
2018-09-17T00:22:05.912Z,12.10
2018-09-17T00:23:05.897Z,12.10
2018-09-17T00:24:05.879Z,8.90
2018-09-17T00:25:05.861Z,8.50
2018-09-17T00:26:05.844Z,10.40
2018-09-17T00:27:05.828Z,10.30
2018-09-17T00:28:05.810Z,8.50
2018-09-17T00:29:05.792Z,8.70
2018-09-17T00:30:05.783Z,14.00
2018-09-17T00:31:05.763Z,9.30
2018-09-17T00:32:05.742Z,10.10
2018-09-17T00:33:05.725Z,14.60
2018-09-17T00:34:05.706Z,12.20
2018-09-17T00:35:05.689Z,11.20
2018-09-17T00:36:05.677Z,14.30
2018-09-17T00:37:05.663Z,10.40
2018-09-17T00:38:05.640Z,8.90
2018-09-17T00:39:05.631Z,12.20
2018-09-17T00:40:05.605Z,10.40
2018-09-17T00:41:05.671Z,9.60
2018-09-17T00:42:05.905Z,10.40
2018-09-17T00:43:06.376Z,14.30
2018-09-17T00:44:05.535Z,13.30
2018-09-17T00:45:05.518Z,13.20
2018-09-17T00:46:05.507Z,11.00
2018-09-17T00:47:05.486Z,9.70
2018-09-17T00:48:05.471Z,10.70
2018-09-17T00:49:05.450Z,11.60
2018-09-17T00:50:05.437Z,10.80
2018-09-17T00:51:05.423Z,10.40
2018-09-17T00:52:05.400Z,11.90
2018-09-17T00:53:05.380Z,11.80
2018-09-17T00:54:05.364Z,9.70
2018-09-17T00:55:05.344Z,8.70
2018-09-17T00:56:05.339Z,11.30
2018-09-17T00:57:05.311Z,10.50
2018-09-17T00:58:05.297Z,12.20
2018-09-17T00:59:05.280Z,12.60
2018-09-17T01:00:05.260Z,10.40
2018-09-17T01:01:05.245Z,10.80
2018-09-17T01:02:05.228Z,9.60
2018-09-17T01:03:05.209Z,11.50
2018-09-17T01:04:05.194Z,10.90
2018-09-17T01:05:05.175Z,11.20
2018-09-17T01:06:05.157Z,10.70
2018-09-17T01:07:05.148Z,10.00
2018-09-17T01:08:05.123Z,11.80
2018-09-17T01:09:05.104Z,11.30
2018-09-17T01:10:05.097Z,8.50
2018-09-17T01:11:05.189Z,11.80
2018-09-17T01:12:05.055Z,13.00
2018-09-17T01:13:05.036Z,12.20
2018-09-17T01:14:05.027Z,11.00
2018-09-17T01:15:05.004Z,12.00
2018-09-17T01:16:04.985Z,10.00
2018-09-17T01:17:04.965Z,9.80
2018-09-17T01:18:04.954Z,12.20
2018-09-17T01:19:04.933Z,12.10
2018-09-17T01:20:04.919Z,11.40
2018-09-17T01:21:04.902Z,12.40
2018-09-17T01:22:04.881Z,10.70
2018-09-17T01:23:04.862Z,12.60
2018-09-17T01:24:04.847Z,11.30
2018-09-17T01:25:04.829Z,9.80
2018-09-17T01:26:04.811Z,9.90
2018-09-17T01:27:04.794Z,10.10
2018-09-17T01:28:04.778Z,8.80
2018-09-17T01:29:04.762Z,9.00
2018-09-17T01:30:04.742Z,10.00
2018-09-17T01:31:04.732Z,10.90
2018-09-17T01:32:04.712Z,11.40
2018-09-17T01:33:04.698Z,9.60
2018-09-17T01:34:04.672Z,11.10
2018-09-17T01:35:04.662Z,10.40
2018-09-17T01:36:04.643Z,13.30
2018-09-17T01:37:04.620Z,11.60
2018-09-17T01:38:04.602Z,11.00
2018-09-17T01:39:04.590Z,9.30
2018-09-17T01:40:04.570Z,10.10
2018-09-17T01:41:04.552Z,12.40
2018-09-17T01:42:04.532Z,12.70
2018-09-17T01:43:04.516Z,9.80
2018-09-17T01:44:04.500Z,15.40
2018-09-17T01:45:04.482Z,10.20
2018-09-17T01:46:04.582Z,11.80
2018-09-17T01:47:04.449Z,10.70
2018-09-17T01:48:04.429Z,10.40
2018-09-17T01:49:04.410Z,11.60
2018-09-17T01:50:04.395Z,10.70
2018-09-17T01:51:04.381Z,10.70
2018-09-17T01:52:04.362Z,11.20
2018-09-17T01:53:04.350Z,10.60
2018-09-17T01:54:04.328Z,12.30
2018-09-17T01:55:04.308Z,10.20
2018-09-17T01:56:04.289Z,11.60
2018-09-17T01:57:04.310Z,9.50
2018-09-17T01:58:04.254Z,12.40
2018-09-17T01:59:04.238Z,15.20
2018-09-17T02:00:04.227Z,11.10
2018-09-17T02:01:04.201Z,13.40
2018-09-17T02:02:04.200Z,13.30
2018-09-17T02:03:04.167Z,11.90
2018-09-17T02:04:04.155Z,10.30
2018-09-17T02:05:04.131Z,10.50
2018-09-17T02:06:04.115Z,12.20
2018-09-17T02:07:04.096Z,12.40
2018-09-17T02:08:04.113Z,10.00
2018-09-17T02:09:04.127Z,12.30
2018-09-17T02:10:04.116Z,12.60
2018-09-17T02:11:04.026Z,10.80
2018-09-17T02:12:04.011Z,10.80
2018-09-17T02:13:03.992Z,12.00
2018-09-17T02:14:03.974Z,11.40
2018-09-17T02:15:03.967Z,11.40
2018-09-17T02:16:03.937Z,13.90
2018-09-17T02:17:03.928Z,13.70
2018-09-17T02:18:03.904Z,12.20
2018-09-17T02:19:03.886Z,10.60
2018-09-17T02:20:03.879Z,15.00
2018-09-17T02:21:03.851Z,14.30
2018-09-17T02:22:03.833Z,13.60
2018-09-17T02:23:03.826Z,11.80
2018-09-17T02:24:03.800Z,13.40
2018-09-17T02:25:03.781Z,11.40
2018-09-17T02:26:03.765Z,10.20
2018-09-17T02:27:03.752Z,10.60
2018-09-17T02:28:03.727Z,12.40
2018-09-17T02:29:03.709Z,11.20
2018-09-17T02:30:03.694Z,14.10
2018-09-17T02:31:03.685Z,12.10
2018-09-17T02:32:03.656Z,15.30
2018-09-17T02:33:03.641Z,14.90
2018-09-17T02:34:03.628Z,13.90
2018-09-17T02:35:03.606Z,12.60
2018-09-17T02:36:03.606Z,12.60
2018-09-17T02:37:03.569Z,13.90
2018-09-17T02:38:03.552Z,12.10
2018-09-17T02:39:03.534Z,12.60
2018-09-17T02:40:03.525Z,12.30
2018-09-17T02:41:03.502Z,11.40
2018-09-17T02:42:03.482Z,12.00
2018-09-17T02:43:03.491Z,13.30
2018-09-17T02:44:03.445Z,15.50
2018-09-17T02:45:03.428Z,11.00
2018-09-17T02:46:03.411Z,12.70
2018-09-17T02:47:03.393Z,14.10
2018-09-17T02:48:03.375Z,13.30
2018-09-17T02:49:03.358Z,11.70
2018-09-17T02:50:03.340Z,16.60
2018-09-17T02:51:03.323Z,14.90
2018-09-17T02:52:03.305Z,12.50
2018-09-17T02:53:03.286Z,13.50
2018-09-17T02:54:03.269Z,14.90
2018-09-17T02:55:03.253Z,14.10
2018-09-17T02:56:03.234Z,13.40
2018-09-17T02:57:03.219Z,14.00
2018-09-17T02:58:03.199Z,16.00
2018-09-17T02:59:03.184Z,10.70
2018-09-17T03:00:03.165Z,11.00
2018-09-17T03:01:03.144Z,14.10
2018-09-17T03:02:03.135Z,13.70
2018-09-17T03:03:03.110Z,13.20
2018-09-17T03:04:03.092Z,11.10
2018-09-17T03:05:03.157Z,12.50
2018-09-17T03:06:03.058Z,16.50
2018-09-17T03:07:03.043Z,16.10
2018-09-17T03:08:03.023Z,18.70
2018-09-17T03:09:03.007Z,12.60
2018-09-17T03:10:02.985Z,10.50
2018-09-17T03:11:02.976Z,15.10
2018-09-17T03:12:02.950Z,12.60
2018-09-17T03:13:02.932Z,14.20
2018-09-17T03:14:02.917Z,12.70
2018-09-17T03:15:02.896Z,13.30
2018-09-17T03:16:02.883Z,13.10
2018-09-17T03:17:02.861Z,12.80
2018-09-17T03:18:02.845Z,14.40
2018-09-17T03:19:02.829Z,12.00
2018-09-17T03:20:02.810Z,10.30
2018-09-17T03:21:02.791Z,14.20
2018-09-17T03:22:02.774Z,13.50
2018-09-17T03:23:02.755Z,13.00
2018-09-17T03:24:02.751Z,14.40
2018-09-17T03:25:02.723Z,12.90
2018-09-17T03:26:02.701Z,14.50
2018-09-17T03:27:02.685Z,13.30
2018-09-17T03:28:02.666Z,14.50
2018-09-17T03:29:02.650Z,18.50
2018-09-17T03:30:02.636Z,17.50
2018-09-17T03:31:02.613Z,14.70
2018-09-17T03:32:02.594Z,12.40
2018-09-17T03:33:02.578Z,15.10
2018-09-17T03:34:02.559Z,13.90
2018-09-17T03:35:02.545Z,17.90
2018-09-17T03:36:02.527Z,13.80
2018-09-17T03:37:02.503Z,15.20
2018-09-17T03:38:02.486Z,13.60
2018-09-17T03:39:02.469Z,18.40
2018-09-17T03:40:02.452Z,14.20
2018-09-17T03:41:02.433Z,11.70
2018-09-17T03:42:02.416Z,14.00
2018-09-17T03:43:02.400Z,12.00
2018-09-17T03:44:02.379Z,13.00
2018-09-17T03:45:02.361Z,14.20
2018-09-17T03:46:02.344Z,13.50
2018-09-17T03:47:02.326Z,15.50
2018-09-17T03:48:02.309Z,13.70
2018-09-17T03:49:02.289Z,13.50
2018-09-17T03:50:02.272Z,15.70
2018-09-17T03:51:02.254Z,13.90
2018-09-17T03:52:02.236Z,15.70
2018-09-17T03:53:02.217Z,15.00
2018-09-17T03:54:02.201Z,18.00
2018-09-17T03:55:02.183Z,17.10
2018-09-17T03:56:02.163Z,14.60
2018-09-17T03:57:02.163Z,11.90
2018-09-17T03:58:02.126Z,14.70
2018-09-17T03:59:02.110Z,17.20
2018-09-17T04:00:02.101Z,14.50
2018-09-17T04:01:02.075Z,13.90
2018-09-17T04:02:02.056Z,14.60
2018-09-17T04:03:02.042Z,14.80
2018-09-17T04:04:02.021Z,16.40
2018-09-17T04:05:02.005Z,12.40
2018-09-17T04:06:01.985Z,17.80
2018-09-17T04:07:02.120Z,16.20
2018-09-17T04:08:01.949Z,13.20
2018-09-17T04:09:01.931Z,13.10
2018-09-17T04:10:01.962Z,13.60
2018-09-17T04:11:01.894Z,12.00
2018-09-17T04:12:01.877Z,15.60
2018-09-17T04:13:01.858Z,11.30
2018-09-17T04:14:01.850Z,12.60
2018-09-17T04:15:01.826Z,13.00
2018-09-17T04:16:01.808Z,17.40
2018-09-17T04:17:01.786Z,14.90
2018-09-17T04:18:01.778Z,17.10
2018-09-17T04:19:01.758Z,14.70
2018-09-17T04:20:01.738Z,13.30
2018-09-17T04:21:01.719Z,13.60
2018-09-17T04:22:01.697Z,16.50
2018-09-17T04:23:01.686Z,11.20
2018-09-17T04:24:01.666Z,14.40
2018-09-17T04:25:01.643Z,13.00
2018-09-17T04:26:01.634Z,14.40
2018-09-17T04:27:01.608Z,13.00
2018-09-17T04:28:01.589Z,16.40
2018-09-17T04:29:01.580Z,14.90
2018-09-17T04:30:01.556Z,12.00
2018-09-17T04:31:01.563Z,17.80
2018-09-17T04:32:01.520Z,13.70
2018-09-17T04:33:01.515Z,14.50
2018-09-17T04:34:01.484Z,15.20
2018-09-17T04:35:01.469Z,18.00
2018-09-17T04:36:01.445Z,14.80
2018-09-17T04:37:01.446Z,15.50
2018-09-17T04:38:01.409Z,14.50
2018-09-17T04:39:01.397Z,16.20
2018-09-17T04:40:01.373Z,15.20
2018-09-17T04:41:01.363Z,17.90
2018-09-17T04:42:01.341Z,16.70
2018-09-17T04:43:01.338Z,17.20
2018-09-17T04:44:01.310Z,18.30
2018-09-17T04:45:01.291Z,16.10
2018-09-17T04:46:01.265Z,14.60
2018-09-17T04:47:01.247Z,20.60
2018-09-17T04:48:01.234Z,16.00
2018-09-17T04:49:01.211Z,14.90
2018-09-17T04:50:01.196Z,13.40
2018-09-17T04:51:01.178Z,18.30
2018-09-17T04:52:01.158Z,13.90
2018-09-17T04:53:01.140Z,16.40
2018-09-17T04:54:01.121Z,15.50
2018-09-17T04:55:01.138Z,19.40
2018-09-17T04:56:01.252Z,15.70
2018-09-17T04:57:01.068Z,19.00
2018-09-17T04:58:01.049Z,15.10
2018-09-17T04:59:01.135Z,15.80
2018-09-17T05:00:01.015Z,14.80
2018-09-17T05:01:00.994Z,14.50
2018-09-17T05:02:00.977Z,14.40
2018-09-17T05:03:00.959Z,19.20
2018-09-17T05:04:00.942Z,16.20
2018-09-17T05:05:00.932Z,15.90
2018-09-17T05:06:00.907Z,16.40
2018-09-17T05:07:00.889Z,18.10
2018-09-17T05:08:00.869Z,19.70
2018-09-17T05:09:00.849Z,17.50
2018-09-17T05:10:00.831Z,19.10
2018-09-17T05:11:00.816Z,20.00
2018-09-17T05:12:00.797Z,19.00
2018-09-17T05:13:00.808Z,16.90
2018-09-17T05:14:00.762Z,14.70
2018-09-17T05:15:00.752Z,14.80
2018-09-17T05:16:00.752Z,15.90
2018-09-17T05:17:00.706Z,19.00
2018-09-17T05:18:00.689Z,18.00
2018-09-17T05:19:00.672Z,17.50
2018-09-17T05:20:00.656Z,20.20
2018-09-17T05:21:00.634Z,19.00
2018-09-17T05:22:00.622Z,17.80
2018-09-17T05:23:00.598Z,17.50
2018-09-17T05:24:00.581Z,18.70
2018-09-17T05:25:01.775Z,16.50
2018-09-17T05:26:00.645Z,19.00
2018-09-17T05:27:49.705Z,17.10
2018-09-17T05:28:49.697Z,17.30
2018-09-17T05:29:49.668Z,21.90
2018-09-17T05:30:49.659Z,20.30
2018-09-17T05:31:49.631Z,16.10
2018-09-17T05:32:49.618Z,18.20
2018-09-17T05:33:49.650Z,16.90
2018-09-17T05:34:49.581Z,20.10
2018-09-17T05:35:49.562Z,18.30
2018-09-17T05:36:49.751Z,19.40
2018-09-17T05:37:49.536Z,17.60
2018-09-17T05:38:49.509Z,19.10
2018-09-17T05:39:49.507Z,16.10
2018-09-17T05:40:49.474Z,19.60
2018-09-17T05:41:49.468Z,17.80
2018-09-17T05:42:49.446Z,37.00
2018-09-17T05:43:49.422Z,22.90
2018-09-17T05:44:49.479Z,18.70
2018-09-17T05:45:49.394Z,16.40
2018-09-17T05:46:49.370Z,21.00
2018-09-17T05:47:49.398Z,17.30
2018-09-17T05:48:49.328Z,17.30
2018-09-17T05:49:49.310Z,20.90
2018-09-17T05:50:49.293Z,22.40
2018-09-17T05:51:49.285Z,18.10
2018-09-17T05:52:49.259Z,21.90
2018-09-17T05:53:49.310Z,22.80
2018-09-17T05:54:49.231Z,15.80
2018-09-17T05:55:49.216Z,18.60
2018-09-17T05:56:49.191Z,21.60
2018-09-17T05:57:49.170Z,20.70
2018-09-17T05:58:49.153Z,23.70
2018-09-17T05:59:49.134Z,18.50
2018-09-17T06:00:49.123Z,22.30
2018-09-17T06:01:49.100Z,18.70
2018-09-17T06:02:49.081Z,19.00
2018-09-17T06:03:49.064Z,17.20
2018-09-17T06:04:49.045Z,17.60
2018-09-17T06:05:49.041Z,21.80
2018-09-17T06:06:49.013Z,18.60
2018-09-17T06:07:48.995Z,17.10
2018-09-17T06:08:48.981Z,19.40
2018-09-17T06:09:49.073Z,17.70
2018-09-17T06:10:48.947Z,21.00
2018-09-17T06:11:48.964Z,17.90
2018-09-17T06:12:48.906Z,18.20
2018-09-17T06:13:48.892Z,22.80
2018-09-17T06:14:48.874Z,19.00
2018-09-17T06:15:48.860Z,19.80
2018-09-17T06:16:48.836Z,21.40
2018-09-17T06:17:48.823Z,20.30
2018-09-17T06:18:48.801Z,19.60
2018-09-17T06:19:48.784Z,19.60
2018-09-17T06:20:48.775Z,26.00
2018-09-17T06:21:48.751Z,23.40
2018-09-17T06:22:48.732Z,23.70
2018-09-17T06:23:48.714Z,20.90
2018-09-17T06:24:48.697Z,21.70
2018-09-17T06:25:48.690Z,20.20
2018-09-17T06:26:48.662Z,26.40
2018-09-17T06:27:48.648Z,21.40
2018-09-17T06:28:48.742Z,18.80
2018-09-17T06:29:48.615Z,21.80
2018-09-17T06:30:48.597Z,24.60
2018-09-17T06:31:48.575Z,22.60
2018-09-17T06:32:48.563Z,25.80
2018-09-17T06:33:48.642Z,26.80
2018-09-17T06:34:48.525Z,20.80
2018-09-17T06:35:48.512Z,21.10
2018-09-17T06:36:48.493Z,22.20
2018-09-17T06:37:48.481Z,17.90
2018-09-17T06:38:48.456Z,24.00
2018-09-17T06:39:48.439Z,22.20
2018-09-17T06:40:48.423Z,21.00
2018-09-17T06:41:48.409Z,20.70
2018-09-17T06:42:48.395Z,22.30
2018-09-17T06:43:48.380Z,18.70
2018-09-17T06:44:48.412Z,20.30
2018-09-17T06:45:48.339Z,19.20
2018-09-17T06:46:48.318Z,21.20
2018-09-17T06:47:48.350Z,22.30
2018-09-17T06:48:48.287Z,23.70
2018-09-17T06:49:48.269Z,26.00
2018-09-17T06:50:48.251Z,17.60
2018-09-17T06:51:48.234Z,20.10
2018-09-17T06:52:48.288Z,20.00
2018-09-17T06:53:48.213Z,24.90
2018-09-17T06:54:48.185Z,21.20
2018-09-17T06:55:48.176Z,20.20
2018-09-17T06:56:48.150Z,20.10
2018-09-17T06:57:48.132Z,22.50
2018-09-17T06:58:48.119Z,24.60
2018-09-17T06:59:48.097Z,23.20
2018-09-17T07:00:48.081Z,20.50
2018-09-17T07:01:48.065Z,19.90
2018-09-17T07:02:48.048Z,21.90
2018-09-17T07:03:48.029Z,21.00
2018-09-17T07:04:48.017Z,18.60
2018-09-17T07:05:47.995Z,22.10
2018-09-17T07:06:47.990Z,21.30
2018-09-17T07:07:47.974Z,21.80
2018-09-17T07:08:48.127Z,22.80
2018-09-17T07:09:47.927Z,20.80
2018-09-17T07:10:47.910Z,18.90
2018-09-17T07:11:47.894Z,21.50
2018-09-17T07:12:47.885Z,20.70
2018-09-17T07:13:47.863Z,18.90
2018-09-17T07:14:47.850Z,20.90
2018-09-17T07:15:47.823Z,21.10
2018-09-17T07:16:47.809Z,23.90
2018-09-17T07:17:47.789Z,21.10
2018-09-17T07:18:47.776Z,22.90
2018-09-17T07:19:47.760Z,20.50
2018-09-17T07:20:47.743Z,20.00
2018-09-17T07:21:47.731Z,23.20
2018-09-17T07:22:47.705Z,26.20
2018-09-17T07:23:47.691Z,28.60
2018-09-17T07:24:47.676Z,31.20
2018-09-17T07:25:47.656Z,22.90
2018-09-17T07:26:47.637Z,22.10
2018-09-17T07:27:47.630Z,20.30
2018-09-17T07:28:47.605Z,20.10
2018-09-17T07:29:47.588Z,19.50
2018-09-17T07:30:47.576Z,21.60
2018-09-17T07:31:47.555Z,25.00
2018-09-17T07:32:47.543Z,19.30
2018-09-17T07:33:47.523Z,20.10
2018-09-17T07:34:47.508Z,21.90
2018-09-17T07:35:47.486Z,22.70
2018-09-17T07:36:47.470Z,22.00
2018-09-17T07:37:47.462Z,19.90
2018-09-17T07:38:47.440Z,24.40
2018-09-17T07:39:47.432Z,24.10
2018-09-17T07:40:47.410Z,21.10
2018-09-17T07:41:47.396Z,20.60
2018-09-17T07:42:47.396Z,20.10
2018-09-17T07:43:47.361Z,22.80
2018-09-17T07:44:47.338Z,24.80
2018-09-17T07:45:47.322Z,18.40
2018-09-17T07:46:47.349Z,20.40
2018-09-17T07:47:47.291Z,22.60
2018-09-17T07:48:47.271Z,19.30
2018-09-17T07:49:47.257Z,21.10
2018-09-17T07:50:47.252Z,24.70
2018-09-17T07:51:47.222Z,24.60
2018-09-17T07:52:47.212Z,22.30
2018-09-17T07:53:47.210Z,23.80
2018-09-17T07:54:47.172Z,23.00
2018-09-17T07:55:47.156Z,21.10
2018-09-17T07:56:47.148Z,19.20
2018-09-17T07:57:47.184Z,21.70
2018-09-17T07:58:47.128Z,24.60
2018-09-17T07:59:47.095Z,26.20
2018-09-17T08:00:47.082Z,22.60
2018-09-17T08:01:47.063Z,19.70
2018-09-17T08:02:47.049Z,21.00
2018-09-17T08:03:47.027Z,24.30
2018-09-17T08:04:47.014Z,26.60
2018-09-17T08:05:47.045Z,19.80
2018-09-17T08:06:46.987Z,19.10
2018-09-17T08:07:46.967Z,26.00
2018-09-17T08:08:46.950Z,21.80
2018-09-17T08:09:46.934Z,19.30
2018-09-17T08:10:46.917Z,19.60
2018-09-17T08:11:46.914Z,20.20
2018-09-17T08:12:46.888Z,21.60
2018-09-17T08:13:46.872Z,21.70
2018-09-17T08:14:46.860Z,21.00
2018-09-17T08:15:46.842Z,27.80
2018-09-17T08:16:46.840Z,20.10
2018-09-17T08:17:46.819Z,22.60
2018-09-17T08:18:46.794Z,22.80
2018-09-17T08:19:46.862Z,24.00
2018-09-17T08:20:46.765Z,23.60
2018-09-17T08:21:46.756Z,18.80
2018-09-17T08:22:46.732Z,15.60
2018-09-17T08:23:46.719Z,18.20
2018-09-17T08:24:46.713Z,24.40
2018-09-17T08:25:46.690Z,18.20
2018-09-17T08:26:46.682Z,19.80
2018-09-17T08:27:46.660Z,24.80
2018-09-17T08:28:46.645Z,18.40
2018-09-17T08:29:46.636Z,24.10
2018-09-17T08:30:46.623Z,18.60
2018-09-17T08:31:46.604Z,17.30
2018-09-17T08:32:46.594Z,25.20
2018-09-17T08:33:46.572Z,16.70
2018-09-17T08:34:46.558Z,20.40
2018-09-17T08:35:46.557Z,20.00
2018-09-17T08:36:46.532Z,22.40
2018-09-17T08:37:46.523Z,16.90
2018-09-17T08:38:46.514Z,24.80
2018-09-17T08:39:46.497Z,16.50
2018-09-17T08:40:46.472Z,18.40
2018-09-17T08:41:46.459Z,18.00
2018-09-17T08:42:46.443Z,21.20
2018-09-17T08:43:46.484Z,16.80
2018-09-17T08:44:46.418Z,21.40
2018-09-17T08:45:46.408Z,26.10
2018-09-17T08:46:46.392Z,21.40
2018-09-17T08:47:46.381Z,22.30
2018-09-17T08:48:46.367Z,21.00
2018-09-17T08:49:46.348Z,21.40
2018-09-17T08:50:46.330Z,19.00
2018-09-17T08:51:46.324Z,22.40
2018-09-17T08:52:46.397Z,21.40
2018-09-17T08:53:46.289Z,26.90
2018-09-17T08:54:46.277Z,34.00
2018-09-17T08:55:46.263Z,22.00
2018-09-17T08:56:46.245Z,19.40
2018-09-17T08:57:46.235Z,19.30
2018-09-17T08:58:46.232Z,14.60
2018-09-17T08:59:46.220Z,19.10
2018-09-17T09:00:46.195Z,19.40
2018-09-17T09:01:46.188Z,17.40
2018-09-17T09:02:46.171Z,20.00
2018-09-17T09:03:46.164Z,19.10
2018-09-17T09:04:46.223Z,16.80
2018-09-17T09:05:46.130Z,17.70
2018-09-17T09:06:46.124Z,20.40
2018-09-17T09:07:46.113Z,23.10
2018-09-17T09:08:46.109Z,16.30
2018-09-17T09:09:46.089Z,16.70
2018-09-17T09:10:46.069Z,15.10
2018-09-17T09:11:46.063Z,22.00
2018-09-17T09:12:46.042Z,17.10
2018-09-17T09:13:46.040Z,19.40
2018-09-17T09:14:46.017Z,16.50
2018-09-17T09:15:46.011Z,17.90
2018-09-17T09:16:45.995Z,13.90
2018-09-17T09:17:45.982Z,16.70
2018-09-17T09:18:45.976Z,18.40
2018-09-17T09:19:45.961Z,18.70
2018-09-17T09:20:45.941Z,19.00
2018-09-17T09:21:45.929Z,16.90
2018-09-17T09:22:45.924Z,19.80
2018-09-17T09:23:45.912Z,19.70
2018-09-17T09:24:45.891Z,16.60
2018-09-17T09:25:45.881Z,17.90
2018-09-17T09:26:45.880Z,18.00
2018-09-17T09:27:45.855Z,16.90
2018-09-17T09:28:45.841Z,16.90
2018-09-17T09:29:45.849Z,13.30
2018-09-17T09:30:45.849Z,14.90
2018-09-17T09:31:45.806Z,14.00
2018-09-17T09:32:45.794Z,14.20
2018-09-17T09:33:45.790Z,16.70
2018-09-17T09:34:45.771Z,14.90
2018-09-17T09:35:45.768Z,12.20
2018-09-17T09:36:45.748Z,13.90
2018-09-17T09:37:45.741Z,15.80
2018-09-17T09:38:45.725Z,10.90
2018-09-17T09:39:45.713Z,14.70
2018-09-17T09:40:45.754Z,16.50
2018-09-17T09:41:45.692Z,11.70
2018-09-17T09:42:45.682Z,12.30
2018-09-17T09:43:45.673Z,14.30
2018-09-17T09:44:45.662Z,18.30
2018-09-17T09:45:45.656Z,12.50
2018-09-17T09:46:45.644Z,12.50
2018-09-17T09:47:45.633Z,18.00
2018-09-17T09:48:45.624Z,14.30
2018-09-17T09:50:44.329Z,13.40
2018-09-17T09:51:44.313Z,13.90
2018-09-17T09:52:44.343Z,12.90
2018-09-17T09:53:44.301Z,11.90
2018-09-17T09:54:44.287Z,15.70
2018-09-17T09:55:44.279Z,14.00
2018-09-17T09:56:44.271Z,15.80
2018-09-17T09:57:44.263Z,16.40
2018-09-17T09:58:44.256Z,12.50
2018-09-17T09:59:44.259Z,15.90
2018-09-17T10:00:44.241Z,14.30
2018-09-17T10:01:44.233Z,17.00
2018-09-17T10:02:44.231Z,9.80
2018-09-17T10:03:44.217Z,15.80
2018-09-17T10:04:44.207Z,12.20
2018-09-17T10:05:44.204Z,10.70
2018-09-17T10:06:44.193Z,11.60
2018-09-17T10:07:44.186Z,12.60
2018-09-17T10:08:44.182Z,13.70
2018-09-17T10:09:44.180Z,12.90
2018-09-17T10:10:45.582Z,12.60
2018-09-17T10:11:44.210Z,11.50
2018-09-17T10:12:44.150Z,12.00
2018-09-17T10:13:44.160Z,14.70
2018-09-17T10:14:44.647Z,16.40
2018-09-17T10:15:44.133Z,19.20
2018-09-17T10:16:44.124Z,14.30
2018-09-17T10:17:44.116Z,19.60
2018-09-17T10:18:44.111Z,19.40
2018-09-17T10:19:44.105Z,11.10
2018-09-17T10:20:44.115Z,9.30
2018-09-17T10:21:44.093Z,8.70
2018-09-17T10:22:44.088Z,12.00
2018-09-17T10:23:44.083Z,11.00
2018-09-17T10:24:44.087Z,13.20
2018-09-17T10:25:44.079Z,12.50
2018-09-17T10:26:44.066Z,9.30
2018-09-17T10:27:44.063Z,9.30
2018-09-17T10:28:44.064Z,9.40
2018-09-17T10:29:44.056Z,16.00
2018-09-17T10:30:44.045Z,9.80
2018-09-17T10:31:44.037Z,8.40
2018-09-17T10:32:44.030Z,11.60
2018-09-17T10:33:44.036Z,7.10
2018-09-17T10:34:44.020Z,7.60
2018-09-17T10:35:44.016Z,6.20
2018-09-17T10:36:44.008Z,9.80
2018-09-17T10:37:44.007Z,7.50
2018-09-17T10:38:44.002Z,8.10
2018-09-17T10:39:43.997Z,8.50
2018-09-17T10:40:43.989Z,9.30
2018-09-17T10:41:43.986Z,6.20
2018-09-17T10:42:43.986Z,7.20
2018-09-17T10:43:43.980Z,6.10
2018-09-17T10:44:43.986Z,7.30
2018-09-17T10:45:43.969Z,7.60
2018-09-17T10:46:43.976Z,8.20
2018-09-17T10:47:44.015Z,6.00
2018-09-17T10:48:43.957Z,8.10
2018-09-17T10:49:43.959Z,6.20
2018-09-17T10:50:43.948Z,7.10
2018-09-17T10:51:43.948Z,8.60
2018-09-17T10:52:43.941Z,9.10
2018-09-17T10:53:43.937Z,6.70
2018-09-17T10:54:43.940Z,10.30
2018-09-17T10:55:43.928Z,7.10
2018-09-17T10:56:43.923Z,5.40
2018-09-17T10:57:43.921Z,7.00
2018-09-17T10:58:47.677Z,5.50
2018-09-17T10:59:43.925Z,8.90
2018-09-17T11:00:47.946Z,7.90
2018-09-17T11:01:43.918Z,6.70
2018-09-17T11:02:43.904Z,6.80
2018-09-17T11:03:43.903Z,6.00
2018-09-17T11:04:43.892Z,8.60
2018-09-17T11:05:43.889Z,8.50
2018-09-17T11:06:43.894Z,5.90
2018-09-17T11:07:43.893Z,8.00
2018-09-17T11:08:43.877Z,7.70
2018-09-17T11:09:43.872Z,8.10
2018-09-17T11:10:43.869Z,8.50
2018-09-17T11:11:43.867Z,9.00
2018-09-17T11:12:43.876Z,4.80
2018-09-17T11:13:43.856Z,4.90
2018-09-17T11:14:43.858Z,6.10
2018-09-17T11:15:43.901Z,5.90
2018-09-17T11:16:43.843Z,6.00
2018-09-17T11:17:43.963Z,5.30
2018-09-17T11:18:43.891Z,9.30
2018-09-17T11:19:43.834Z,6.20
2018-09-17T11:20:43.852Z,6.60
2018-09-17T11:21:43.832Z,4.70
2018-09-17T11:22:43.821Z,4.70
2018-09-17T11:23:43.833Z,6.70
2018-09-17T11:24:43.813Z,8.40
2018-09-17T11:25:43.810Z,6.30
2018-09-17T11:26:43.815Z,6.60
2018-09-17T11:27:43.805Z,6.50
2018-09-17T11:28:43.798Z,5.00
2018-09-17T11:29:43.795Z,6.10
2018-09-17T11:30:43.791Z,7.30
2018-09-17T11:31:43.787Z,5.20
2018-09-17T11:32:43.783Z,9.00
2018-09-17T11:33:43.786Z,8.10
2018-09-17T11:34:43.777Z,6.80
2018-09-17T11:35:43.774Z,6.80
2018-09-17T11:36:43.766Z,8.00
2018-09-17T11:37:43.762Z,5.60
2018-09-17T11:38:43.757Z,7.90
2018-09-17T11:39:43.753Z,5.60
2018-09-17T11:40:43.748Z,6.90
2018-09-17T11:41:43.743Z,8.40
2018-09-17T11:42:43.747Z,7.30
2018-09-17T11:43:43.735Z,7.50
2018-09-17T11:44:43.730Z,10.40
2018-09-17T11:45:43.731Z,7.20
2018-09-17T11:46:43.743Z,9.70
2018-09-17T11:47:43.725Z,9.20
2018-09-17T11:48:43.712Z,7.50
2018-09-17T11:49:43.702Z,9.90
2018-09-17T11:50:43.695Z,6.70
2018-09-17T11:51:43.698Z,7.40
2018-09-17T11:52:43.695Z,8.90
2018-09-17T11:53:43.681Z,7.50
2018-09-17T11:54:43.681Z,5.50
2018-09-17T11:55:43.691Z,8.20
2018-09-17T11:56:43.660Z,5.60
2018-09-17T11:57:43.654Z,7.20
2018-09-17T11:58:43.647Z,8.10
2018-09-17T11:59:43.641Z,8.50
2018-09-17T12:00:43.638Z,9.90
2018-09-17T12:01:43.681Z,9.10
2018-09-17T12:02:43.619Z,10.40
2018-09-17T12:03:43.612Z,6.70
2018-09-17T12:04:43.607Z,9.90
2018-09-17T12:05:43.657Z,6.00
2018-09-17T12:06:43.598Z,6.40
2018-09-17T12:07:43.612Z,9.30
2018-09-17T12:08:43.581Z,8.30
2018-09-17T12:09:43.573Z,5.60
2018-09-17T12:10:43.562Z,8.50
2018-09-17T12:11:43.559Z,5.10
2018-09-17T12:12:43.543Z,5.60
2018-09-17T12:13:43.535Z,7.30
2018-09-17T12:14:43.526Z,6.90
2018-09-17T12:15:43.518Z,7.10
2018-09-17T12:17:43.503Z,7.30
2018-09-17T12:18:43.494Z,7.10
2018-09-17T12:21:27.511Z,6.60
2018-09-17T12:22:27.501Z,6.30
2018-09-17T12:23:27.488Z,6.40
2018-09-17T12:24:27.486Z,8.50
2018-09-17T12:25:27.473Z,7.10
2018-09-17T12:26:27.460Z,7.20
2018-09-17T12:27:27.452Z,6.20
2018-09-17T12:28:27.449Z,8.10
2018-09-17T12:29:27.435Z,6.30
2018-09-17T12:30:27.428Z,9.00
2018-09-17T12:31:27.415Z,6.40
2018-09-17T12:32:27.404Z,8.10
2018-09-17T12:33:27.409Z,9.80
2018-09-17T12:34:27.395Z,10.30
2018-09-17T12:35:27.379Z,8.50
2018-09-17T12:36:27.367Z,8.60
2018-09-17T12:37:27.358Z,9.50
2018-09-17T12:38:27.348Z,12.60
2018-09-17T12:39:27.338Z,8.10
2018-09-17T12:40:27.341Z,9.30
2018-09-17T12:41:27.322Z,9.20
2018-09-17T12:42:27.310Z,7.00
2018-09-17T12:43:27.307Z,10.10
2018-09-17T12:44:27.289Z,7.80
2018-09-17T12:45:27.282Z,10.60
2018-09-17T12:46:27.274Z,8.00
2018-09-17T12:47:27.261Z,7.20
2018-09-17T12:48:27.258Z,11.30
2018-09-17T12:49:27.257Z,9.50
2018-09-17T12:50:27.250Z,9.00
2018-09-17T12:51:27.230Z,9.70
2018-09-17T12:52:27.212Z,9.10
2018-09-17T12:53:27.200Z,8.30
2018-09-17T12:54:27.193Z,8.10
2018-09-17T12:55:27.182Z,8.20
2018-09-17T12:56:27.172Z,11.00
2018-09-17T12:57:27.162Z,9.00
2018-09-17T12:58:27.152Z,9.60
2018-09-17T12:59:27.142Z,8.50
2018-09-17T13:00:27.131Z,8.10
2018-09-17T13:01:27.132Z,9.60
2018-09-17T13:02:27.118Z,13.30